Piedmont Triad International Airport
KGSO : now visible

Airfield :











YOU CAN JOIN US ON...

 
LOGIN :

Register | Disclaimer

   EN    FR    IT 

 









Legend :    VFR   Marginal VFR   IFR   Intensive IFR   Very Intensive IFR
Visi :
Ceiling :
>= 8 km
>= 3000ft
5 to 8 km
1000 to 3000 ft
1500m to 5 km
500 to 1000 ft
800 to 1500m
200 to 500 ft
< 800m
< 200 ft
Symbols :   Thunderstorms  Fog  Heavy snow  Heavy precipitations  Wind > 20 kt






- Airport Elevation : 925 ft
- IATA code : GSO


KGSO - Piedmont Triad International

CURRENT METAR :
  • 211654Z VRB03KT 10SM FEW050 FEW250 26/14 A3003 RMK AO2 SLP160 T02610144 $

EXPIRED METARs :
  • 211554Z VRB03KT 10SM FEW050 FEW250 26/15 A3005 RMK AO2 SLP166 T02560150 $
  • 211454Z 24003KT 10SM SCT040 SCT250 24/14 A3006 RMK AO2 SLP170 T02390144 50000
  • 211354Z VRB03KT 10SM FEW250 23/16 A3006 RMK AO2 SLP171 T02280156
  • 211254Z VRB03KT 10SM FEW250 22/16 A3007 RMK AO2 SLP174 T02170161

TAF KGSO
Valid from the 21 at 12:00 until the 22 at 12:00 UTC


211140Z 2112/2212 20003KT P6SM FEW060 SCT250
KZTL FIR / North America



MET'MAP, your aeronautical weather chart ! - Copyright ORBIFLY December 2007 - Disclaimer

ORBIFLY MET'MAP TEAM :

Programming & Development : Alexandra Zaïnal
Original concept : Baudouin d'Aumeries
Technical & hardware support : Manuel Goepfert
Assistance : Marc-Olivier Méhu




SOURCES & CREDITS :

   NOAA       Earth
Advisory